Time;durP1;ratioP1;P1;durP2;ratioP2;P2;SDS_P1;SDS_P2;PMS_P1;PMS_P2;Temp;Humidity;BMP_temperature;BMP_pressure;BME280_temperature;BME280_humidity;BME280_pressure;Samples;Min_cycle;Max_cycle;Signal;HPM_P1;HPM_P2
2023/05/17 00:02:22;;;;;;;6.40;1.27;;;;;;;7.23;57.49;101313.34;7397546;19;20022;-67
2023/05/17 00:04:52;;;;;;;8.32;1.65;;;;;;;7.22;57.60;101320.31;7395399;19;20431;-66
2023/05/17 00:07:20;;;;;;;6.20;1.98;;;;;;;7.18;57.60;101315.97;7397713;19;20010;-67
2023/05/17 00:09:49;;;;;;;6.38;1.70;;;;;;;7.16;58.26;101318.56;7397122;19;20372;-67
2023/05/17 00:12:17;;;;;;;4.32;1.33;;;;;;;7.12;58.32;101323.78;7397563;19;20428;-68
2023/05/17 00:14:46;;;;;;;5.70;1.85;;;;;;;7.08;58.54;101319.44;7395619;19;20031;-68
2023/05/17 00:17:17;;;;;;;8.43;1.35;;;;;;;7.03;59.68;101327.25;7397383;19;20026;-66
2023/05/17 00:19:45;;;;;;;7.72;2.08;;;;;;;6.98;59.51;101326.38;7396115;19;20020;-67
2023/05/17 00:22:14;;;;;;;8.73;1.75;;;;;;;6.94;59.78;101329.84;7397089;19;20010;-68
2023/05/17 00:24:42;;;;;;;7.43;1.65;;;;;;;6.90;60.09;101330.69;7394601;19;20485;-66
2023/05/17 00:27:11;;;;;;;6.45;1.35;;;;;;;6.86;60.39;101335.00;7395167;19;20031;-67
2023/05/17 00:29:39;;;;;;;5.03;1.60;;;;;;;6.82;60.69;101335.88;7396558;19;20491;-66
2023/05/17 00:32:09;;;;;;;7.80;1.80;;;;;;;6.78;60.63;101334.13;7396873;19;20018;-66
2023/05/17 00:34:40;;;;;;;9.93;2.05;;;;;;;6.73;61.50;101335.88;7395189;19;20023;-67
2023/05/17 00:37:08;;;;;;;11.85;2.28;;;;;;;6.69;61.30;101341.03;7397198;19;20019;-67
2023/05/17 00:39:37;;;;;;;9.52;1.50;;;;;;;6.67;61.54;101332.38;7395504;19;20027;-68
2023/05/17 00:42:06;;;;;;;6.15;1.80;;;;;;;6.65;62.02;101341.06;7396707;19;20015;-67
2023/05/17 00:44:35;;;;;;;9.45;1.88;;;;;;;6.62;62.14;101336.69;7394667;19;20034;-67
2023/05/17 00:47:03;;;;;;;7.43;1.90;;;;;;;6.59;62.34;101333.19;7396437;19;20032;-67
2023/05/17 00:49:32;;;;;;;7.72;1.88;;;;;;;6.56;62.43;101344.50;7396366;19;20031;-67
2023/05/17 00:52:03;;;;;;;6.55;2.25;;;;;;;6.53;63.06;101339.25;7396255;19;20045;-68
2023/05/17 00:54:32;;;;;;;9.32;2.78;;;;;;;6.50;62.64;101341.84;7394507;19;20015;-68
2023/05/17 00:57:01;;;;;;;10.63;2.45;;;;;;;6.48;63.28;101340.97;7395703;19;20022;-68
2023/05/17 00:59:31;;;;;;;7.05;2.00;;;;;;;6.39;63.55;101328.75;7394526;19;20365;-68
2023/05/17 01:02:01;;;;;;;6.88;1.52;;;;;;;6.44;64.06;101341.81;7396007;19;20019;-67
2023/05/17 01:04:31;;;;;;;7.65;2.28;;;;;;;6.42;64.14;101344.41;7394495;19;20041;-68
2023/05/17 01:07:03;;;;;;;11.70;2.83;;;;;;;6.38;64.02;101331.34;7396035;19;20022;-67
2023/05/17 01:09:32;;;;;;;10.18;2.42;;;;;;;6.40;64.39;101340.94;7396131;19;20018;-68
2023/05/17 01:12:09;;;;;;;5.35;2.28;;;;;;;6.38;65.66;101340.03;7395383;19;20383;-68
2023/05/17 01:14:49;;;;;;;9.65;2.60;;;;;;;6.36;65.77;101333.97;7393689;19;20578;-68
2023/05/17 01:17:21;;;;;;;9.30;2.55;;;;;;;6.36;64.99;101341.78;7395204;19;20017;-68
2023/05/17 01:20:05;;;;;;;11.85;2.83;;;;;;;6.35;65.93;101345.25;7393400;19;20011;-67
2023/05/17 01:22:46;;;;;;;11.60;2.90;;;;;;;6.29;67.06;101340.88;7395933;19;20373;-66
2023/05/17 01:25:35;;;;;;;6.65;2.30;;;;;;;6.31;67.62;101349.56;7393939;19;20015;-67
2023/05/17 01:28:07;;;;;;;9.70;2.83;;;;;;;6.26;65.98;101342.59;7395695;19;20091;-67
2023/05/17 01:30:37;;;;;;;9.68;2.55;;;;;;;6.27;66.34;101357.34;7394841;19;20364;-67
2023/05/17 01:33:07;;;;;;;11.73;2.55;;;;;;;6.26;66.74;101361.69;7394288;19;20014;-69
2023/05/17 01:35:35;;;;;;;7.15;2.45;;;;;;;6.26;66.40;101360.84;7395153;19;20018;-66
2023/05/17 01:38:04;;;;;;;10.90;3.30;;;;;;;6.24;67.06;101363.41;7399707;19;20478;-66
2023/05/17 01:40:35;;;;;;;10.50;3.10;;;;;;;6.19;67.53;101352.09;7399364;19;20372;-67
2023/05/17 01:43:12;;;;;;;7.70;3.08;;;;;;;6.22;67.70;101361.66;7402041;19;20019;-67
2023/05/17 01:45:45;;;;;;;8.40;2.72;;;;;;;6.19;67.62;101359.91;7402061;19;20540;-66
2023/05/17 01:48:22;;;;;;;12.77;3.45;;;;;;;6.19;68.01;101354.69;7402153;19;20485;-66
2023/05/17 01:50:53;;;;;;;9.13;2.78;;;;;;;6.18;68.26;101348.63;7401825;19;20074;-68
2023/05/17 01:53:27;;;;;;;10.35;2.53;;;;;;;6.17;68.50;101343.41;7401154;19;20378;-67
2023/05/17 01:55:59;;;;;;;10.70;3.00;;;;;;;6.16;68.54;101349.47;7402702;19;20021;-67
2023/05/17 01:58:32;;;;;;;7.18;3.03;;;;;;;6.15;69.94;101351.19;7402184;19;20023;-66
2023/05/17 02:01:02;;;;;;;12.07;4.00;;;;;;;6.14;69.72;101353.81;7402317;19;20014;-66
2023/05/17 02:03:31;;;;;;;10.35;3.05;;;;;;;6.12;69.63;101361.63;7400918;19;20022;-65
2023/05/17 02:05:59;;;;;;;17.50;3.45;;;;;;;6.12;70.08;101352.94;7401317;19;20363;-66
2023/05/17 02:08:28;;;;;;;9.25;2.50;;;;;;;6.11;69.98;101359.00;7401274;19;20022;-66
2023/05/17 02:10:57;;;;;;;9.13;3.72;;;;;;;6.09;70.17;101359.00;7401210;19;20026;-66
2023/05/17 02:13:25;;;;;;;13.43;3.42;;;;;;;6.08;70.41;101358.97;7400077;19;20403;-67
2023/05/17 02:15:56;;;;;;;12.07;4.05;;;;;;;6.07;71.08;101365.06;7401282;19;20021;-67
2023/05/17 02:18:25;;;;;;;7.50;2.58;;;;;;;6.06;70.73;101368.53;7402316;19;20019;-67
2023/05/17 02:20:54;;;;;;;8.73;3.13;;;;;;;6.05;71.24;101365.03;7399602;19;20030;-67
2023/05/17 02:23:23;;;;;;;14.57;3.80;;;;;;;6.04;70.57;101360.72;7401246;19;20022;-70
2023/05/17 02:25:52;;;;;;;9.57;2.75;;;;;;;6.03;71.88;101356.34;7398948;19;20014;-66
2023/05/17 02:28:21;;;;;;;12.10;3.42;;;;;;;6.00;71.25;101362.41;7400567;19;20097;-67
2023/05/17 02:30:49;;;;;;;16.65;3.70;;;;;;;5.99;71.74;101358.06;7400408;19;20499;-66
2023/05/17 02:33:20;;;;;;;9.00;3.15;;;;;;;5.99;71.71;101351.97;7399731;19;20492;-68
2023/05/17 02:35:51;;;;;;;12.43;3.67;;;;;;;5.96;71.72;101355.38;7401974;19;20019;-68
2023/05/17 02:38:19;;;;;;;9.38;3.10;;;;;;;5.98;71.72;101361.53;7401615;19;20045;-66
2023/05/17 02:40:47;;;;;;;11.63;3.50;;;;;;;5.97;72.18;101353.66;7398058;19;20027;-66
2023/05/17 02:43:16;;;;;;;9.55;3.50;;;;;;;5.95;72.44;101356.28;7399593;19;20023;-67
2023/05/17 02:45:45;;;;;;;11.20;3.35;;;;;;;5.92;72.35;101356.22;7400366;19;20018;-66
2023/05/17 02:48:14;;;;;;;8.73;2.92;;;;;;;5.91;71.85;101357.09;7399363;19;20014;-66
2023/05/17 02:50:45;;;;;;;14.15;4.10;;;;;;;5.91;71.87;101364.03;7399693;19;20347;-66
2023/05/17 02:53:14;;;;;;;12.25;3.95;;;;;;;5.89;72.51;101366.63;7399098;19;20010;-65
2023/05/17 02:55:42;;;;;;;12.55;4.15;;;;;;;5.86;72.12;101367.50;7399742;19;20351;-66
2023/05/17 02:58:11;;;;;;;12.27;3.13;;;;;;;5.84;72.67;101366.59;7399705;19;20014;-66
2023/05/17 03:00:39;;;;;;;11.75;4.00;;;;;;;5.80;72.52;101367.44;7397897;19;20014;-66
2023/05/17 03:03:08;;;;;;;8.32;3.20;;;;;;;5.76;72.18;101370.00;7398844;19;20018;-66
2023/05/17 03:05:36;;;;;;;12.18;3.65;;;;;;;5.70;72.94;101368.22;7399250;19;20368;-66
2023/05/17 03:08:07;;;;;;;8.02;3.53;;;;;;;5.63;72.94;101369.03;7399161;19;20435;-66
2023/05/17 03:10:36;;;;;;;9.55;4.00;;;;;;;5.55;72.99;101366.34;7399736;19;20420;-66
2023/05/17 03:13:05;;;;;;;9.75;3.67;;;;;;;5.50;73.38;101365.44;7398853;19;20023;-67
2023/05/17 03:15:33;;;;;;;7.57;3.65;;;;;;;5.45;73.27;101377.53;7398995;19;20018;-66
2023/05/17 03:18:02;;;;;;;14.13;4.10;;;;;;;5.41;73.92;101379.25;7399051;19;20018;-66
2023/05/17 03:20:30;;;;;;;11.35;3.78;;;;;;;5.38;74.59;101379.19;7397365;19;20035;-66
2023/05/17 03:22:58;;;;;;;9.32;3.45;;;;;;;5.34;74.75;101378.28;7398388;19;20481;-66
2023/05/17 03:25:30;;;;;;;11.93;4.25;;;;;;;5.25;74.69;101378.19;7397308;19;20014;-66
2023/05/17 03:27:58;;;;;;;23.73;9.05;;;;;;;5.29;74.07;101384.31;7399421;19;20022;-66
2023/05/17 03:30:27;;;;;;;19.52;10.77;;;;;;;5.26;74.22;101392.06;7398993;19;20015;-66
2023/05/17 03:32:55;;;;;;;16.20;4.45;;;;;;;5.23;74.82;101392.91;7398511;19;21861;-65
2023/05/17 03:35:24;;;;;;;12.02;4.30;;;;;;;5.20;74.86;101392.91;7398482;19;20010;-65
2023/05/17 03:37:52;;;;;;;11.18;3.90;;;;;;;5.17;74.83;101392.88;7397834;19;20015;-66
2023/05/17 03:40:21;;;;;;;11.88;4.07;;;;;;;5.15;74.90;101400.63;7396872;19;20031;-65
2023/05/17 03:42:53;;;;;;;15.00;3.88;;;;;;;5.16;75.24;101406.72;7397812;19;20031;-66
2023/05/17 03:45:21;;;;;;;10.88;3.92;;;;;;;5.17;75.64;101408.47;7398494;19;20037;-66
2023/05/17 03:47:50;;;;;;;14.85;4.28;;;;;;;5.16;75.48;101420.59;7397877;19;20022;-65
2023/05/17 03:50:18;;;;;;;10.05;4.65;;;;;;;5.18;75.46;101411.09;7398071;19;20023;-66
2023/05/17 03:52:47;;;;;;;13.18;4.03;;;;;;;5.21;75.76;101418.91;7397739;19;20018;-66
2023/05/17 03:55:15;;;;;;;14.43;4.50;;;;;;;5.23;75.79;101426.72;7397907;19;20436;-67
2023/05/17 03:57:44;;;;;;;13.45;4.28;;;;;;;5.26;75.60;101421.59;7397496;19;20502;-66
2023/05/17 04:00:20;;;;;;;11.57;3.95;;;;;;;5.30;75.98;101425.09;7394956;19;20014;-66
2023/05/17 04:02:49;;;;;;;10.02;4.10;;;;;;;5.35;76.23;101423.41;7397525;19;20010;-67
2023/05/17 04:05:17;;;;;;;10.32;4.47;;;;;;;5.39;76.31;101423.44;7397065;19;20018;-66
2023/05/17 04:07:46;;;;;;;11.75;4.63;;;;;;;5.44;76.73;101427.84;7396749;19;20025;-66
2023/05/17 04:10:15;;;;;;;11.48;3.58;;;;;;;5.49;76.32;101424.41;7397180;19;20023;-66
2023/05/17 04:12:43;;;;;;;13.75;4.57;;;;;;;5.54;76.91;101427.94;7397147;19;20014;-67
2023/05/17 04:15:15;;;;;;;10.52;4.28;;;;;;;5.59;76.07;101434.94;7397388;19;20039;-65
2023/05/17 04:17:43;;;;;;;14.13;4.60;;;;;;;5.64;76.18;101431.50;7397461;19;20018;-66
2023/05/17 04:20:20;;;;;;;9.02;4.07;;;;;;;5.68;76.08;101438.47;7395949;19;20018;-66
2023/05/17 04:22:56;;;;;;;12.93;4.47;;;;;;;5.71;76.41;101430.72;7396261;19;20014;-66
2023/05/17 04:25:24;;;;;;;10.60;4.40;;;;;;;5.75;77.17;101439.44;7395651;19;20014;-65
2023/05/17 04:27:53;;;;;;;10.63;4.60;;;;;;;5.77;76.50;101432.50;7396774;19;20032;-65
2023/05/17 04:30:24;;;;;;;11.68;4.38;;;;;;;5.80;77.25;101444.66;7396656;19;20022;-67
2023/05/17 04:32:53;;;;;;;15.02;4.70;;;;;;;5.82;76.50;101441.22;7396321;19;20018;-67
2023/05/17 04:35:21;;;;;;;12.93;5.00;;;;;;;5.83;76.29;101445.56;7395620;19;20021;-67
2023/05/17 04:37:50;;;;;;;10.15;4.57;;;;;;;5.87;76.27;101452.53;7395958;19;20018;-66
2023/05/17 04:40:19;;;;;;;8.40;3.42;;;;;;;5.89;76.75;101465.59;7395085;19;20015;-66
2023/05/17 04:42:47;;;;;;;12.88;4.30;;;;;;;5.91;77.82;101468.22;7395673;19;20040;-66
2023/05/17 04:45:16;;;;;;;10.77;4.28;;;;;;;5.91;76.75;101473.44;7397037;19;20090;-66
2023/05/17 04:47:49;;;;;;;13.70;4.30;;;;;;;5.93;76.67;101477.78;7396567;19;20037;-66
2023/05/17 04:50:17;;;;;;;9.30;4.10;;;;;;;5.96;76.90;101479.53;7396119;19;20015;-66
2023/05/17 04:52:46;;;;;;;13.50;4.78;;;;;;;5.97;77.92;101479.56;7395352;19;20443;-66
2023/05/17 04:55:15;;;;;;;9.30;4.55;;;;;;;5.99;76.92;101485.69;7396151;19;20015;-66
2023/05/17 04:57:43;;;;;;;12.98;4.53;;;;;;;6.06;76.86;101499.63;7395382;19;20041;-67
2023/05/17 05:00:14;;;;;;;15.80;5.35;;;;;;;6.10;77.04;101501.41;7393767;19;20473;-66
2023/05/17 05:02:42;;;;;;;13.60;4.55;;;;;;;6.15;77.67;101499.72;7394314;19;20038;-67
2023/05/17 05:05:13;;;;;;;10.40;4.70;;;;;;;6.21;78.15;101498.03;7394200;19;20024;-65
2023/05/17 05:07:42;;;;;;;9.73;4.80;;;;;;;6.26;78.18;101507.63;7393912;19;20018;-67
2023/05/17 05:10:11;;;;;;;11.10;4.80;;;;;;;6.32;78.19;101512.03;7394229;19;20022;-66
2023/05/17 05:12:39;;;;;;;12.88;5.15;;;;;;;6.38;78.09;101511.19;7392987;19;20019;-66
2023/05/17 05:15:09;;;;;;;16.35;5.55;;;;;;;6.45;78.42;101510.41;7393579;19;20035;-66
2023/05/17 05:17:38;;;;;;;13.82;5.10;;;;;;;6.47;79.00;101499.13;7393896;19;20007;-66
2023/05/17 05:20:08;;;;;;;14.60;6.40;;;;;;;6.58;78.75;101509.59;7392646;19;20094;-65
2023/05/17 05:22:40;;;;;;;14.48;4.68;;;;;;;6.64;79.19;101514.00;7393873;19;20015;-65
2023/05/17 05:25:09;;;;;;;13.48;5.70;;;;;;;6.71;79.08;101514.91;7394532;19;20031;-67
2023/05/17 05:27:38;;;;;;;11.75;5.35;;;;;;;6.77;78.92;101520.16;7394462;19;20018;-67
2023/05/17 05:30:08;;;;;;;17.25;4.97;;;;;;;6.83;79.00;101517.59;7393842;19;20478;-67
2023/05/17 05:32:36;;;;;;;12.70;4.68;;;;;;;6.90;80.10;101515.91;7395409;19;20071;-68
2023/05/17 05:35:05;;;;;;;12.40;4.95;;;;;;;6.97;80.74;101515.94;7394335;19;20018;-67
2023/05/17 05:37:34;;;;;;;18.27;5.30;;;;;;;7.05;79.73;101515.13;7394558;19;20022;-66
2023/05/17 05:40:07;;;;;;;11.23;5.43;;;;;;;7.13;79.79;101526.47;7393902;19;20011;-66
2023/05/17 05:42:36;;;;;;;11.00;4.53;;;;;;;7.21;79.68;101522.16;7393525;19;20022;-67
2023/05/17 05:45:05;;;;;;;15.82;5.60;;;;;;;7.28;79.32;101523.03;7393868;19;20445;-67
2023/05/17 05:47:33;;;;;;;16.60;5.45;;;;;;;7.34;78.92;101523.06;7394692;19;20414;-66
2023/05/17 05:50:01;;;;;;;20.85;5.72;;;;;;;7.43;78.33;101527.47;7393919;19;20102;-66
2023/05/17 05:52:30;;;;;;;16.05;4.68;;;;;;;7.50;79.82;101530.09;7393711;19;20434;-66
2023/05/17 05:54:59;;;;;;;26.40;6.28;;;;;;;7.60;77.96;101538.84;7392476;19;20015;-66
2023/05/17 05:57:30;;;;;;;7.30;3.95;;;;;;;7.68;77.31;101541.47;7394122;19;20019;-66
2023/05/17 05:59:58;;;;;;;16.13;4.60;;;;;;;7.75;77.03;101539.78;7394121;19;20035;-66
2023/05/17 06:02:27;;;;;;;9.55;4.13;;;;;;;7.85;76.59;101538.91;7393800;19;20028;-67
2023/05/17 06:04:55;;;;;;;17.02;4.18;;;;;;;7.92;75.80;101542.41;7391671;19;20027;-67
2023/05/17 06:07:24;;;;;;;10.27;3.55;;;;;;;7.98;74.60;101545.03;7393566;19;20023;-66
2023/05/17 06:09:52;;;;;;;21.80;4.13;;;;;;;8.01;72.81;101537.19;7394003;19;20028;-67
2023/05/17 06:12:20;;;;;;;12.25;3.47;;;;;;;8.05;72.75;101548.53;7393939;19;20023;-66
2023/05/17 06:14:52;;;;;;;8.23;3.50;;;;;;;8.11;71.79;101530.25;7391463;19;20014;-66
2023/05/17 06:17:27;;;;;;;10.35;3.08;;;;;;;8.17;71.25;101547.69;7393652;19;20485;-66
2023/05/17 06:19:55;;;;;;;15.63;3.55;;;;;;;8.19;70.76;101549.44;7393352;19;20411;-66
2023/05/17 06:22:24;;;;;;;11.18;3.65;;;;;;;8.26;70.01;101559.00;7393416;19;20014;-66
2023/05/17 06:24:52;;;;;;;13.85;3.30;;;;;;;8.31;68.96;101557.28;7395613;19;20035;-66
2023/05/17 06:27:20;;;;;;;9.85;3.15;;;;;;;8.40;70.17;101553.78;7401866;19;20039;-66
2023/05/17 06:29:52;;;;;;;13.15;2.95;;;;;;;8.50;69.15;101546.00;7400179;19;20014;-66
2023/05/17 06:32:20;;;;;;;24.05;4.38;;;;;;;8.63;68.81;101547.72;7400803;19;20011;-66
2023/05/17 06:34:49;;;;;;;12.82;2.85;;;;;;;8.76;67.83;101548.59;7397441;19;20423;-66
2023/05/17 06:37:17;;;;;;;10.70;2.78;;;;;;;8.85;66.26;101564.28;7399588;19;20386;-66
2023/05/17 06:39:46;;;;;;;15.02;3.35;;;;;;;8.94;67.28;101551.16;7399739;19;20027;-65
2023/05/17 06:42:14;;;;;;;15.23;3.83;;;;;;;9.00;66.56;101567.72;7396753;19;20071;-66
2023/05/17 06:44:43;;;;;;;15.07;3.38;;;;;;;9.06;64.43;101547.66;7397046;19;20015;-66
2023/05/17 06:47:14;;;;;;;11.05;2.47;;;;;;;9.13;64.99;101549.38;7399788;19;20018;-66
2023/05/17 06:49:42;;;;;;;16.20;3.42;;;;;;;9.19;64.81;101545.88;7400309;19;20078;-66
2023/05/17 06:52:11;;;;;;;10.65;2.33;;;;;;;9.26;63.74;101576.41;7399935;19;20431;-66
2023/05/17 06:54:39;;;;;;;13.40;3.67;;;;;;;9.34;64.38;101547.56;7397166;19;20011;-66
2023/05/17 06:57:08;;;;;;;9.85;2.85;;;;;;;9.41;62.04;101554.50;7399723;19;20073;-66
2023/05/17 06:59:37;;;;;;;11.38;2.92;;;;;;;9.46;62.41;101557.13;7399544;19;20037;-66
2023/05/17 07:02:06;;;;;;;13.73;3.38;;;;;;;9.53;62.16;101564.09;7397641;19;20014;-66
2023/05/17 07:04:37;;;;;;;15.65;2.80;;;;;;;9.62;62.22;101548.31;7396904;19;20035;-66
2023/05/17 07:07:06;;;;;;;9.63;2.78;;;;;;;9.70;62.22;101563.13;7399553;19;20027;-66
2023/05/17 07:09:34;;;;;;;13.82;4.00;;;;;;;9.70;62.44;101566.59;7399897;19;20343;-69
2023/05/17 07:12:03;;;;;;;9.30;3.22;;;;;;;9.72;62.86;101571.88;7399193;19;20026;-70
2023/05/17 07:14:31;;;;;;;11.93;3.58;;;;;;;9.69;63.14;101570.13;7396664;19;20040;-69
2023/05/17 07:17:00;;;;;;;19.00;3.60;;;;;;;9.64;62.71;101566.63;7397699;19;20022;-69
2023/05/17 07:19:29;;;;;;;10.55;3.15;;;;;;;9.52;62.04;101562.34;7398510;19;20018;-69
2023/05/17 07:22:00;;;;;;;10.95;3.22;;;;;;;9.54;61.55;101586.78;7396904;19;20011;-68
2023/05/17 07:24:28;;;;;;;7.22;2.38;;;;;;;9.49;61.15;101571.94;7396833;19;20018;-68
2023/05/17 07:26:57;;;;;;;13.85;2.80;;;;;;;9.47;60.03;101592.91;7395864;19;20010;-68
2023/05/17 07:29:26;;;;;;;16.38;3.03;;;;;;;9.50;59.84;101586.78;7398879;19;20014;-68
2023/05/17 07:31:54;;;;;;;8.57;2.53;;;;;;;9.55;60.57;101593.75;7398794;19;20024;-68
2023/05/17 07:34:23;;;;;;;10.63;2.45;;;;;;;9.62;60.29;101592.84;7396421;19;20086;-69
2023/05/17 07:36:51;;;;;;;11.88;2.92;;;;;;;9.70;59.56;101595.44;7398094;19;20385;-68
2023/05/17 07:39:22;;;;;;;7.88;1.92;;;;;;;9.72;55.34;101611.19;7398274;19;20090;-69
2023/05/17 07:41:51;;;;;;;10.10;2.00;;;;;;;9.75;56.11;101595.41;7396421;19;20495;-68
2023/05/17 07:44:20;;;;;;;11.10;2.67;;;;;;;9.81;56.83;101611.13;7396506;19;20079;-68
2023/05/17 07:46:49;;;;;;;10.15;2.13;;;;;;;9.89;55.14;101621.56;7398038;19;20019;-68
2023/05/17 07:49:17;;;;;;;11.50;2.85;;;;;;;9.98;55.79;101611.03;7397835;19;20023;-68
2023/05/17 07:51:46;;;;;;;11.75;1.95;;;;;;;10.05;55.66;101620.59;7397906;19;20089;-68
2023/05/17 07:54:26;;;;;;;9.88;2.35;;;;;;;10.07;54.05;101616.22;7396406;19;20039;-68
2023/05/17 07:56:56;;;;;;;10.25;2.55;;;;;;;10.10;54.79;101616.19;7398225;19;20035;-68
2023/05/17 07:59:25;;;;;;;9.95;2.85;;;;;;;10.10;54.13;101615.34;7397799;19;20039;-68
2023/05/17 08:01:53;;;;;;;14.73;2.35;;;;;;;10.06;53.12;101626.69;7396216;19;20019;-69
2023/05/17 08:04:22;;;;;;;10.45;1.92;;;;;;;10.04;53.33;101631.97;7396162;19;20022;-69
2023/05/17 08:06:51;;;;;;;8.57;2.28;;;;;;;10.05;53.47;101623.22;7397132;19;20023;-69
2023/05/17 08:09:20;;;;;;;11.82;2.35;;;;;;;10.09;53.54;101637.19;7396743;19;20086;-69
2023/05/17 08:11:51;;;;;;;7.47;2.20;;;;;;;10.14;52.63;101621.44;7396722;19;20014;-69
2023/05/17 08:14:19;;;;;;;12.90;1.85;;;;;;;10.21;53.16;101625.75;7395399;19;20481;-69
2023/05/17 08:16:50;;;;;;;10.50;2.33;;;;;;;10.26;52.28;101616.09;7396766;19;20031;-68
2023/05/17 08:19:19;;;;;;;6.78;2.33;;;;;;;10.30;51.44;101635.31;7396543;19;20548;-68
2023/05/17 08:21:48;;;;;;;7.78;1.88;;;;;;;10.29;51.52;101634.47;7395926;19;20070;-69
2023/05/17 08:24:16;;;;;;;8.68;1.90;;;;;;;10.31;52.60;101631.81;7395581;19;20022;-68
2023/05/17 08:26:45;;;;;;;12.73;2.58;;;;;;;10.35;52.90;101638.78;7395618;19;20430;-68
2023/05/17 08:29:16;;;;;;;10.30;2.25;;;;;;;10.46;52.30;101634.38;7396814;19;20074;-68
2023/05/17 08:31:45;;;;;;;8.52;2.50;;;;;;;10.55;52.62;101630.81;7397320;19;20022;-68
2023/05/17 08:34:13;;;;;;;14.18;2.42;;;;;;;10.49;50.16;101638.72;7395326;19;20015;-69
2023/05/17 08:36:43;;;;;;;8.38;2.33;;;;;;;10.46;51.56;101644.00;7396243;19;20516;-69
2023/05/17 08:39:11;;;;;;;9.15;1.92;;;;;;;10.39;48.26;101653.69;7396193;19;20671;-68
2023/05/17 08:41:40;;;;;;;8.40;1.52;;;;;;;10.42;49.82;101643.16;7395757;19;20010;-69
2023/05/17 08:44:09;;;;;;;10.68;1.95;;;;;;;10.50;48.96;101643.97;7395500;19;20022;-69
2023/05/17 08:46:42;;;;;;;7.43;1.55;;;;;;;10.58;48.60;101649.16;7394488;19;20015;-68
2023/05/17 08:49:14;;;;;;;12.95;1.65;;;;;;;10.60;48.57;101650.00;7396519;19;20026;-68
2023/05/17 08:51:43;;;;;;;6.90;1.63;;;;;;;10.65;47.88;101649.97;7396284;19;20021;-68
2023/05/17 08:54:13;;;;;;;10.18;2.25;;;;;;;10.67;48.11;101645.59;7394381;19;20026;-67
2023/05/17 08:56:44;;;;;;;9.88;2.42;;;;;;;10.70;47.95;101646.47;7395403;19;20031;-69
2023/05/17 08:59:13;;;;;;;10.07;2.05;;;;;;;10.79;48.45;101634.13;7395762;19;20018;-68
2023/05/17 09:01:45;;;;;;;12.38;1.90;;;;;;;10.90;47.06;101654.13;7394321;19;20015;-68
2023/05/17 09:04:15;;;;;;;8.52;1.67;;;;;;;11.00;47.35;101636.56;7393917;19;20078;-68
2023/05/17 09:06:44;;;;;;;11.90;2.40;;;;;;;11.05;47.68;101632.13;7395427;19;20011;-68
2023/05/17 09:09:13;;;;;;;7.30;2.15;;;;;;;11.17;48.16;101638.16;7394813;19;20477;-68
2023/05/17 09:11:41;;;;;;;9.23;2.30;;;;;;;11.31;48.26;101640.63;7395196;19;20030;-68
2023/05/17 09:14:10;;;;;;;9.35;2.15;;;;;;;11.36;48.74;101641.47;7393316;19;20082;-68
2023/05/17 09:16:39;;;;;;;15.82;2.15;;;;;;;11.42;49.35;101641.41;7394193;19;20454;-69
2023/05/17 09:19:15;;;;;;;7.75;2.42;;;;;;;11.42;48.79;101649.28;7394133;19;20471;-69
2023/05/17 09:21:48;;;;;;;12.73;2.28;;;;;;;11.39;48.93;101638.81;7393451;19;20066;-68
2023/05/17 09:24:19;;;;;;;10.20;2.15;;;;;;;11.26;48.35;101661.72;7393441;19;20018;-68
2023/05/17 09:26:48;;;;;;;10.95;1.70;;;;;;;11.16;48.04;101655.69;7393511;19;20074;-68
2023/05/17 09:29:18;;;;;;;10.23;2.15;;;;;;;11.08;48.05;101652.25;7394493;19;20031;-68
2023/05/17 09:31:46;;;;;;;15.48;2.90;;;;;;;11.14;48.74;101641.69;7395098;19;20093;-68
2023/05/17 09:34:22;;;;;;;6.05;1.70;;;;;;;11.22;48.13;101652.09;7395869;19;20019;-69
2023/05/17 09:36:51;;;;;;;13.98;2.60;;;;;;;11.30;48.05;101663.41;7395492;19;20015;-68
2023/05/17 09:39:19;;;;;;;7.95;1.88;;;;;;;11.31;46.50;101659.91;7395285;19;20022;-68
2023/05/17 09:41:49;;;;;;;7.72;1.63;;;;;;;11.29;45.44;101655.56;7393783;19;20014;-69
2023/05/17 09:44:18;;;;;;;7.05;2.35;;;;;;;11.25;45.42;101655.56;7392740;19;20042;-68
2023/05/17 09:46:48;;;;;;;4.88;1.55;;;;;;;11.28;44.93;101649.41;7393871;19;20031;-68
2023/05/17 09:49:20;;;;;;;8.80;2.10;;;;;;;11.29;44.89;101647.69;7394612;19;20019;-67
2023/05/17 09:51:50;;;;;;;11.90;1.85;;;;;;;11.31;45.15;101638.91;7393895;19;20026;-69
2023/05/17 09:54:19;;;;;;;8.73;1.40;;;;;;;11.37;43.68;101653.72;7392678;19;20074;-68
2023/05/17 09:56:58;;;;;;;7.70;1.75;;;;;;;11.45;44.45;101657.16;7394246;19;20030;-69
2023/05/17 09:59:29;;;;;;;8.93;2.08;;;;;;;11.51;41.79;101657.09;7396528;19;20014;-69
2023/05/17 10:01:59;;;;;;;6.60;1.80;;;;;;;11.58;42.92;101664.00;7400429;19;20422;-68
2023/05/17 10:04:33;;;;;;;8.32;1.58;;;;;;;11.59;42.28;101659.63;7399175;19;20022;-68
2023/05/17 10:07:03;;;;;;;6.47;2.13;;;;;;;11.62;43.13;101662.19;7400644;19;20041;-68
2023/05/17 10:09:36;;;;;;;8.80;1.90;;;;;;;11.68;42.80;101653.38;7401211;19;20011;-68
2023/05/17 10:12:06;;;;;;;9.25;2.35;;;;;;;11.74;42.79;101650.69;7402013;19;20045;-67
2023/05/17 10:14:37;;;;;;;5.97;1.40;;;;;;;11.76;42.60;101648.88;7398471;19;20018;-69
2023/05/17 10:17:07;;;;;;;7.70;1.60;;;;;;;11.80;43.17;101647.94;7401369;19;20406;-69
2023/05/17 10:19:40;;;;;;;9.73;1.70;;;;;;;11.87;42.47;101651.41;7401315;19;20018;-68
2023/05/17 10:22:15;;;;;;;7.25;1.50;;;;;;;11.88;41.32;101656.63;7399881;19;20024;-69
2023/05/17 10:24:45;;;;;;;9.95;2.03;;;;;;;11.94;40.41;101654.81;7396991;19;20474;-69
2023/05/17 10:27:15;;;;;;;6.50;1.55;;;;;;;11.96;40.36;101653.06;7397404;19;20010;-68
2023/05/17 10:29:45;;;;;;;7.72;1.60;;;;;;;11.96;41.17;101664.47;7396855;19;20015;-69
2023/05/17 10:32:16;;;;;;;10.93;2.00;;;;;;;11.96;41.47;101660.97;7400301;19;20032;-69
2023/05/17 10:34:49;;;;;;;10.55;2.28;;;;;;;11.99;41.85;101647.75;7397282;19;20015;-69
2023/05/17 10:37:20;;;;;;;11.48;2.13;;;;;;;12.04;41.44;101661.72;7400074;19;20037;-68
2023/05/17 10:39:51;;;;;;;8.48;1.70;;;;;;;12.08;41.71;101666.06;7399813;19;20423;-67
2023/05/17 10:42:20;;;;;;;5.68;1.77;;;;;;;12.08;41.34;101667.81;7398036;19;20014;-68
2023/05/17 10:44:49;;;;;;;7.75;1.80;;;;;;;12.08;40.05;101676.59;7396634;19;20163;-65
2023/05/17 10:47:18;;;;;;;7.10;2.17;;;;;;;12.09;41.06;101669.56;7398843;19;20512;-69
2023/05/17 10:49:50;;;;;;;6.70;1.75;;;;;;;12.13;40.18;101677.41;7399404;19;20014;-67
2023/05/17 10:52:22;;;;;;;7.30;1.77;;;;;;;12.19;40.75;101679.91;7398977;19;20027;-69
2023/05/17 10:54:51;;;;;;;9.73;2.40;;;;;;;12.27;39.13;101674.59;7396326;19;20010;-68
2023/05/17 10:57:33;;;;;;;7.60;1.83;;;;;;;12.35;38.58;101683.22;7398421;19;20018;-69
2023/05/17 11:00:09;;;;;;;7.35;1.58;;;;;;;12.41;39.23;101679.66;7399286;19;20031;-69
2023/05/17 11:02:43;;;;;;;7.72;1.40;;;;;;;12.44;39.18;101657.69;7396817;19;20021;-70
2023/05/17 11:05:26;;;;;;;13.80;2.30;;;;;;;12.55;38.91;101653.97;7398856;19;20014;-70
2023/05/17 11:08:13;;;;;;;7.25;1.73;;;;;;;12.61;39.43;101662.66;7398349;19;20033;-70
2023/05/17 11:11:11;;;;;;;7.70;2.03;;;;;;;12.68;38.62;101662.53;7396937;19;20019;-69
2023/05/17 11:13:50;;;;;;;22.17;2.80;;;;;;;12.78;38.89;101667.69;7396475;19;20022;-69
2023/05/17 11:16:30;;;;;;;4.60;1.50;;;;;;;12.86;36.12;101664.03;7398116;19;20017;-70
2023/05/17 11:19:08;;;;;;;11.23;2.10;;;;;;;12.91;37.24;101655.19;7396876;19;20090;-68
2023/05/17 11:21:47;;;;;;;6.97;1.48;;;;;;;12.94;36.61;101661.28;7397995;19;20046;-68
2023/05/17 11:24:20;;;;;;;8.65;2.13;;;;;;;12.98;37.50;101662.94;7395854;19;20032;-67
2023/05/17 11:26:52;;;;;;;10.93;1.67;;;;;;;13.06;38.36;101638.25;7396388;19;20015;-69
2023/05/17 11:29:20;;;;;;;10.70;2.25;;;;;;;13.15;37.99;101649.47;7398534;19;20014;-67
2023/05/17 11:31:53;;;;;;;8.95;1.95;;;;;;;13.25;37.99;101659.84;7398238;19;20014;-68
2023/05/17 11:34:25;;;;;;;5.88;1.30;;;;;;;13.34;37.88;101646.50;7396122;19;20021;-69
2023/05/17 11:36:57;;;;;;;9.05;2.35;;;;;;;13.46;36.20;101654.22;7398360;19;20023;-69
2023/05/17 11:39:26;;;;;;;8.57;1.75;;;;;;;13.63;37.56;101653.00;7399225;19;20413;-69
2023/05/17 11:41:56;;;;;;;15.38;1.98;;;;;;;13.76;37.60;101646.59;7397455;19;20478;-69